Time;durP1;ratioP1;P1;durP2;ratioP2;P2;SDS_P1;SDS_P2;PMS_P1;PMS_P2;Temp;Humidity;BMP_temperature;BMP_pressure;BME280_temperature;BME280_humidity;BME280_pressure;Samples;Min_cycle;Max_cycle;Signal;HPM_P1;HPM_P2
2021/06/25 00:02:07;;;;;;;18.13;12.77;;;12.90;99.90;;;;;;5045579;28;25054;-75
2021/06/25 00:04:33;;;;;;;15.50;11.60;;;13.00;99.90;;;;;;5048917;28;25076;-75
2021/06/25 00:06:59;;;;;;;19.90;12.85;;;12.90;99.90;;;;;;5041613;28;25174;-74
2021/06/25 00:09:25;;;;;;;19.92;12.60;;;12.80;99.90;;;;;;5028915;28;25070;-75
2021/06/25 00:11:51;;;;;;;19.50;14.15;;;12.90;99.90;;;;;;5034570;28;25055;-75
2021/06/25 00:14:21;;;;;;;16.95;13.13;;;12.90;99.90;;;;;;5037903;28;25060;-75
2021/06/25 00:16:48;;;;;;;16.98;13.07;;;12.70;99.90;;;;;;5037558;28;25054;-76
2021/06/25 00:19:14;;;;;;;14.13;11.90;;;12.70;99.90;;;;;;5041878;28;25073;-75
2021/06/25 00:21:39;;;;;;;20.42;14.25;;;12.70;99.90;;;;;;5055272;28;25100;-75
2021/06/25 00:24:05;;;;;;;21.80;14.45;;;12.80;99.90;;;;;;5049433;28;25062;-73
2021/06/25 00:26:31;;;;;;;16.40;13.55;;;12.70;99.90;;;;;;5048203;28;25080;-77
2021/06/25 00:28:57;;;;;;;25.30;15.27;;;12.80;99.90;;;;;;5051379;28;25066;-75
2021/06/25 00:31:22;;;;;;;19.50;14.32;;;12.60;99.90;;;;;;5051880;28;25090;-74
2021/06/25 00:33:48;;;;;;;19.02;14.48;;;12.60;99.90;;;;;;5062789;28;25093;-73
2021/06/25 00:36:13;;;;;;;19.45;13.18;;;12.50;99.90;;;;;;5060700;28;25071;-76
2021/06/25 00:38:39;;;;;;;20.63;13.85;;;12.50;99.90;;;;;;5053722;28;25063;-75
2021/06/25 00:41:05;;;;;;;23.48;15.40;;;12.50;99.90;;;;;;5040230;28;25079;-75
2021/06/25 00:43:32;;;;;;;22.15;15.25;;;12.50;99.90;;;;;;5039767;28;25048;-73
2021/06/25 00:45:58;;;;;;;21.30;14.45;;;12.40;99.90;;;;;;5044778;28;25056;-73
2021/06/25 00:48:23;;;;;;;19.85;14.90;;;12.30;99.90;;;;;;5042207;28;25078;-74
2021/06/25 00:50:49;;;;;;;18.50;14.23;;;12.30;99.90;;;;;;5053910;28;25080;-75
2021/06/25 00:53:15;;;;;;;20.02;15.73;;;12.40;99.90;;;;;;5054767;28;25059;-73
2021/06/25 00:55:43;;;;;;;23.38;15.80;;;12.50;99.90;;;;;;5048406;28;25055;-75
2021/06/25 00:58:16;;;;;;;20.98;15.30;;;12.30;99.90;;;;;;5037087;28;25059;-75
2021/06/25 01:00:42;;;;;;;23.45;15.57;;;12.30;99.90;;;;;;5051596;28;25176;-75
2021/06/25 01:03:08;;;;;;;23.70;15.73;;;12.30;99.90;;;;;;5052937;28;25082;-74
2021/06/25 01:05:33;;;;;;;22.55;16.13;;;12.30;99.90;;;;;;5051111;28;24978;-75
2021/06/25 01:08:00;;;;;;;18.70;14.50;;;12.50;99.90;;;;;;5045167;28;25157;-75
2021/06/25 01:10:26;;;;;;;22.83;14.77;;;12.30;99.90;;;;;;5043919;28;25077;-74
2021/06/25 01:12:51;;;;;;;24.17;15.13;;;12.50;99.90;;;;;;5049097;28;25074;-73
2021/06/25 01:15:17;;;;;;;22.60;15.85;;;12.50;99.90;;;;;;5046692;28;25048;-73
2021/06/25 01:17:44;;;;;;;21.88;15.55;;;12.50;99.90;;;;;;5043721;28;25064;-74
2021/06/25 01:20:22;;;;;;;26.48;15.73;;;12.50;99.90;;;;;;5045315;28;25062;-74
2021/06/25 01:22:48;;;;;;;21.48;16.17;;;12.40;99.90;;;;;;5053304;28;25076;-74
2021/06/25 01:25:28;;;;;;;23.70;16.20;;;12.10;99.90;;;;;;5047373;28;25076;-74
2021/06/25 01:27:56;;;;;;;25.23;15.52;;;12.10;99.90;;;;;;5052150;28;25064;-74
2021/06/25 01:30:27;;;;;;;22.13;14.82;;;12.20;99.90;;;;;;5048371;28;25067;-75
2021/06/25 01:32:54;;;;;;;25.27;16.85;;;12.30;99.90;;;;;;5055179;28;25079;-76
2021/06/25 01:35:21;;;;;;;25.27;16.00;;;12.30;99.90;;;;;;5048033;28;25054;-75
2021/06/25 01:37:47;;;;;;;23.20;15.68;;;12.40;99.90;;;;;;5046729;28;25081;-73
2021/06/25 01:40:15;;;;;;;26.52;15.68;;;12.50;99.90;;;;;;5052114;28;25100;-75
2021/06/25 01:42:43;;;;;;;22.73;16.05;;;12.50;99.90;;;;;;5048351;28;25070;-75
2021/06/25 01:45:15;;;;;;;22.88;16.40;;;12.50;99.90;;;;;;5054895;28;25100;-75
2021/06/25 01:47:42;;;;;;;24.08;16.27;;;12.60;99.90;;;;;;5057199;28;25068;-76
2021/06/25 01:50:11;;;;;;;23.17;16.25;;;12.70;99.90;;;;;;5054368;28;25099;-75
2021/06/25 01:52:41;;;;;;;30.30;18.23;;;12.80;99.90;;;;;;5066671;28;25082;-77
2021/06/25 01:55:07;;;;;;;25.00;16.98;;;12.80;99.90;;;;;;5087001;28;25073;-77
2021/06/25 01:57:32;;;;;;;32.45;18.25;;;12.90;99.90;;;;;;5071308;28;25104;-77
2021/06/25 02:00:00;;;;;;;27.45;17.02;;;12.70;99.90;;;;;;5066919;28;25080;-74
2021/06/25 02:02:26;;;;;;;28.65;18.30;;;12.70;99.90;;;;;;5063400;28;25113;-75
2021/06/25 02:04:55;;;;;;;30.05;18.50;;;12.80;99.90;;;;;;5061928;28;25068;-75
2021/06/25 02:07:21;;;;;;;26.02;18.05;;;12.80;99.90;;;;;;5068350;28;25064;-75
2021/06/25 02:09:47;;;;;;;25.00;16.95;;;12.60;99.90;;;;;;5060763;28;25107;-77
2021/06/25 02:12:12;;;;;;;27.65;18.52;;;12.60;99.90;;;;;;5062576;28;25078;-75
2021/06/25 02:14:38;;;;;;;27.00;18.25;;;12.60;99.90;;;;;;5062235;28;25063;-75
2021/06/25 02:17:05;;;;;;;26.83;17.70;;;12.60;99.90;;;;;;5060250;28;25087;-76
2021/06/25 02:19:31;;;;;;;25.90;17.98;;;12.60;99.90;;;;;;5049042;28;25061;-75
2021/06/25 02:21:57;;;;;;;26.50;17.70;;;12.70;99.90;;;;;;5050364;28;25063;-76
2021/06/25 02:24:22;;;;;;;24.65;18.10;;;12.80;99.90;;;;;;5042164;28;25137;-72
2021/06/25 02:26:48;;;;;;;21.85;16.30;;;12.80;99.90;;;;;;5051754;28;25070;-75
2021/06/25 02:29:17;;;;;;;24.83;16.55;;;12.90;99.90;;;;;;5047516;28;25077;-74
2021/06/25 02:31:42;;;;;;;22.10;16.50;;;12.90;99.90;;;;;;5044110;28;25068;-75
2021/06/25 02:34:08;;;;;;;23.98;16.48;;;13.00;99.90;;;;;;5047735;28;25071;-76
2021/06/25 02:36:34;;;;;;;27.17;16.27;;;13.00;99.90;;;;;;5047999;28;25065;-74
2021/06/25 02:38:59;;;;;;;23.50;15.93;;;13.00;99.90;;;;;;5048789;28;25093;-74
2021/06/25 02:41:31;;;;;;;25.92;16.15;;;13.00;99.90;;;;;;5050545;28;25075;-72
2021/06/25 02:43:56;;;;;;;22.55;15.05;;;13.00;99.90;;;;;;5044468;28;25121;-75
2021/06/25 02:46:22;;;;;;;22.58;16.65;;;13.00;99.90;;;;;;5040989;28;25070;-73
2021/06/25 02:48:47;;;;;;;25.00;16.92;;;13.00;99.90;;;;;;5041767;28;25067;-75
2021/06/25 02:51:13;;;;;;;22.40;15.50;;;13.00;99.90;;;;;;5041820;28;25141;-74
2021/06/25 02:53:39;;;;;;;19.10;14.48;;;13.10;99.90;;;;;;5046403;28;25147;-74
2021/06/25 02:56:05;;;;;;;20.63;15.20;;;13.10;99.90;;;;;;5044319;28;25065;-74
2021/06/25 02:58:31;;;;;;;22.20;15.48;;;13.10;99.90;;;;;;5045791;28;25089;-74
2021/06/25 03:00:56;;;;;;;22.95;15.55;;;13.10;99.90;;;;;;5050920;28;25133;-75
2021/06/25 03:03:23;;;;;;;22.75;14.85;;;13.20;99.90;;;;;;5048199;28;25098;-75
2021/06/25 03:05:52;;;;;;;19.70;15.23;;;13.20;99.90;;;;;;5047696;28;25081;-73
2021/06/25 03:08:19;;;;;;;22.58;14.40;;;13.20;99.90;;;;;;5045442;28;25054;-74
2021/06/25 03:10:48;;;;;;;19.50;14.93;;;13.20;99.90;;;;;;5041071;28;25075;-75
2021/06/25 03:13:14;;;;;;;21.25;14.00;;;13.30;99.90;;;;;;5051925;28;25132;-74
2021/06/25 03:15:40;;;;;;;20.85;14.02;;;13.30;99.90;;;;;;5048102;28;25138;-74
2021/06/25 03:18:07;;;;;;;21.25;14.25;;;13.20;99.90;;;;;;5056125;28;25073;-74
2021/06/25 03:20:49;;;;;;;19.75;14.07;;;13.10;99.90;;;;;;5071702;28;25056;-74
2021/06/25 03:23:15;;;;;;;22.17;14.43;;;13.20;99.90;;;;;;5054342;28;25056;-75
2021/06/25 03:25:42;;;;;;;21.88;15.18;;;13.20;99.90;;;;;;5049797;28;25145;-76
2021/06/25 03:28:07;;;;;;;20.45;13.88;;;13.30;99.90;;;;;;5041851;28;25159;-74
2021/06/25 03:30:34;;;;;;;19.83;15.50;;;13.40;99.90;;;;;;5041672;28;25086;-73
2021/06/25 03:33:00;;;;;;;21.38;15.88;;;13.40;99.90;;;;;;5043382;28;25081;-75
2021/06/25 03:35:27;;;;;;;23.67;15.75;;;13.30;99.90;;;;;;5044881;28;25074;-75
2021/06/25 03:37:52;;;;;;;24.88;15.63;;;13.40;99.90;;;;;;5047736;28;25059;-75
2021/06/25 03:40:18;;;;;;;21.30;14.98;;;13.40;99.90;;;;;;5043160;28;25079;-75
2021/06/25 03:42:50;;;;;;;26.35;15.68;;;13.40;99.90;;;;;;5058163;28;25069;-76
2021/06/25 03:45:21;;;;;;;22.20;15.65;;;13.50;99.90;;;;;;5073911;28;25079;-74
2021/06/25 03:47:46;;;;;;;19.90;14.27;;;13.60;99.90;;;;;;5068015;28;25073;-72
2021/06/25 03:50:13;;;;;;;21.02;15.32;;;13.60;99.90;;;;;;5055545;28;25050;-73
2021/06/25 03:52:38;;;;;;;30.83;15.98;;;13.60;99.90;;;;;;5054018;28;25087;-75
2021/06/25 03:55:09;;;;;;;24.77;16.38;;;13.40;99.90;;;;;;5042301;28;25096;-76
2021/06/25 03:57:35;;;;;;;21.75;15.13;;;13.50;99.90;;;;;;5039780;28;25073;-75
2021/06/25 04:00:01;;;;;;;24.20;15.60;;;13.60;99.90;;;;;;5036458;28;25051;-74
2021/06/25 04:02:26;;;;;;;29.30;16.60;;;13.50;99.90;;;;;;5049115;28;20104;-75
2021/06/25 04:04:52;;;;;;;22.25;16.40;;;13.50;99.90;;;;;;5037123;28;20033;-75
2021/06/25 04:07:17;;;;;;;24.08;15.73;;;13.50;99.90;;;;;;5043155;28;20504;-71
2021/06/25 04:09:43;;;;;;;24.85;16.08;;;13.60;99.90;;;;;;5040745;28;20036;-75
2021/06/25 04:12:09;;;;;;;24.60;17.58;;;13.70;99.90;;;;;;5037301;28;20040;-75
2021/06/25 04:14:35;;;;;;;29.33;17.25;;;13.70;99.90;;;;;;5038005;28;20024;-76
2021/06/25 04:17:00;;;;;;;23.52;16.40;;;13.60;99.90;;;;;;5042877;28;20025;-75
2021/06/25 04:19:26;;;;;;;27.77;17.02;;;13.60;99.90;;;;;;5044327;28;20021;-73
2021/06/25 04:21:51;;;;;;;28.55;18.77;;;13.60;99.90;;;;;;5051982;28;20245;-76
2021/06/25 04:24:17;;;;;;;26.60;17.70;;;13.60;99.90;;;;;;5044140;28;20025;-76
2021/06/25 04:26:43;;;;;;;29.67;19.25;;;13.60;99.90;;;;;;5046910;28;20021;-72
2021/06/25 04:29:11;;;;;;;27.60;18.85;;;13.60;99.90;;;;;;5052082;28;20021;-75
2021/06/25 04:31:39;;;;;;;28.50;19.17;;;13.70;99.90;;;;;;5048439;28;20081;-73
2021/06/25 04:34:05;;;;;;;31.23;18.45;;;13.70;99.90;;;;;;5052572;28;20678;-75
2021/06/25 04:36:31;;;;;;;33.40;20.45;;;13.70;99.90;;;;;;5051328;28;20468;-73
2021/06/25 04:38:58;;;;;;;32.72;21.25;;;13.70;99.90;;;;;;5044509;28;20070;-74
2021/06/25 04:41:23;;;;;;;32.05;20.95;;;13.70;99.90;;;;;;5047201;28;20036;-73
2021/06/25 04:43:49;;;;;;;34.28;21.33;;;13.70;99.90;;;;;;5051773;28;20021;-74
2021/06/25 04:46:15;;;;;;;34.33;21.83;;;13.70;99.90;;;;;;5047670;28;20107;-74
2021/06/25 04:48:43;;;;;;;39.10;22.77;;;13.80;99.90;;;;;;5039642;28;20032;-75
2021/06/25 04:51:09;;;;;;;38.55;22.13;;;13.90;99.90;;;;;;5058278;28;20033;-74
2021/06/25 04:53:35;;;;;;;32.13;21.17;;;13.90;99.90;;;;;;5042350;28;20028;-74
2021/06/25 04:56:01;;;;;;;44.90;23.65;;;13.90;99.90;;;;;;5045426;28;20057;-74
2021/06/25 04:58:28;;;;;;;43.85;24.33;;;13.90;99.90;;;;;;5043979;28;20052;-76
2021/06/25 05:00:57;;;;;;;34.58;22.60;;;14.00;99.90;;;;;;5052143;28;20052;-75
2021/06/25 05:03:23;;;;;;;35.38;22.15;;;13.90;99.90;;;;;;5053563;28;20025;-74
2021/06/25 05:05:50;;;;;;;34.58;22.98;;;13.90;99.90;;;;;;5040781;28;20076;-73
2021/06/25 05:08:17;;;;;;;37.38;23.23;;;14.00;99.90;;;;;;5051882;28;20029;-75
2021/06/25 05:10:43;;;;;;;37.65;22.98;;;14.10;99.90;;;;;;5056184;28;20040;-75
2021/06/25 05:13:10;;;;;;;42.63;23.55;;;14.20;99.90;;;;;;5053717;28;20033;-74
2021/06/25 05:15:36;;;;;;;36.03;22.75;;;14.10;99.90;;;;;;5047384;28;20032;-73
2021/06/25 05:18:31;;;;;;;41.78;23.08;;;14.20;99.90;;;;;;5049505;28;20087;-75
2021/06/25 05:20:57;;;;;;;39.30;25.90;;;14.20;99.90;;;;;;5042447;28;20130;-75
2021/06/25 05:23:22;;;;;;;41.42;25.30;;;14.20;99.90;;;;;;5045087;28;20033;-76
2021/06/25 05:25:48;;;;;;;42.00;26.40;;;14.30;99.90;;;;;;5052289;28;20024;-75
2021/06/25 05:28:14;;;;;;;41.47;25.80;;;14.40;99.90;;;;;;5046958;28;20025;-75
2021/06/25 05:30:40;;;;;;;43.22;25.90;;;14.40;99.90;;;;;;5046165;28;20090;-74
2021/06/25 05:33:07;;;;;;;43.67;25.58;;;14.30;99.90;;;;;;5049832;28;20034;-74
2021/06/25 05:35:34;;;;;;;47.55;26.75;;;14.30;99.90;;;;;;5056103;28;20027;-75
2021/06/25 05:38:10;;;;;;;46.28;26.35;;;14.20;99.90;;;;;;5051281;28;20063;-74
2021/06/25 05:40:36;;;;;;;51.83;26.13;;;14.20;99.90;;;;;;5054369;28;20017;-75
2021/06/25 05:43:06;;;;;;;39.90;24.67;;;14.30;99.90;;;;;;5051956;28;20024;-75
2021/06/25 05:45:33;;;;;;;42.45;25.45;;;14.40;99.90;;;;;;5049610;28;20405;-73
2021/06/25 05:48:00;;;;;;;46.03;26.33;;;14.60;99.90;;;;;;5049859;28;20040;-75
2021/06/25 05:50:26;;;;;;;57.25;26.25;;;14.60;99.90;;;;;;5057319;28;20029;-75
2021/06/25 05:52:52;;;;;;;44.08;25.35;;;14.60;99.90;;;;;;5051142;28;20025;-73
2021/06/25 05:55:18;;;;;;;45.97;27.73;;;14.70;99.90;;;;;;5046703;28;20088;-74
2021/06/25 05:57:47;;;;;;;49.08;28.15;;;14.80;99.90;;;;;;5051475;28;20762;-74
2021/06/25 06:00:16;;;;;;;45.10;27.27;;;14.80;99.90;;;;;;5055689;28;20023;-76
2021/06/25 06:02:42;;;;;;;45.65;27.83;;;14.90;99.90;;;;;;5050103;28;20024;-74
2021/06/25 06:05:08;;;;;;;38.90;25.70;;;14.90;99.90;;;;;;5049328;28;20112;-75
2021/06/25 06:07:34;;;;;;;51.33;27.08;;;15.00;99.90;;;;;;5047471;28;20029;-75
2021/06/25 06:09:59;;;;;;;46.83;25.90;;;15.10;99.90;;;;;;5053726;28;20028;-75
2021/06/25 06:12:26;;;;;;;44.33;24.90;;;15.20;99.90;;;;;;5052690;28;20076;-74
2021/06/25 06:14:52;;;;;;;40.33;24.20;;;15.10;99.90;;;;;;5047045;28;20037;-74
2021/06/25 06:17:19;;;;;;;39.72;24.17;;;15.10;99.90;;;;;;5048951;28;20074;-75
2021/06/25 06:19:48;;;;;;;37.38;23.02;;;15.20;99.90;;;;;;5042014;28;20025;-75
2021/06/25 06:33:16;;;;;;;40.03;26.27;;;15.80;99.90;;;;;;5045374;28;20098;-74
2021/06/25 06:35:42;;;;;;;40.00;24.63;;;16.00;99.90;;;;;;5051412;28;20446;-75
2021/06/25 06:38:08;;;;;;;39.08;23.23;;;15.80;99.90;;;;;;5046285;28;20104;-74
2021/06/25 06:40:34;;;;;;;37.38;21.75;;;15.90;99.90;;;;;;5046459;28;20028;-74
2021/06/25 06:43:01;;;;;;;39.20;21.77;;;15.90;99.90;;;;;;5056038;28;20013;-77
2021/06/25 06:45:27;;;;;;;40.60;21.80;;;16.00;99.90;;;;;;5054924;28;20051;-74
2021/06/25 06:47:53;;;;;;;38.70;22.25;;;16.10;99.90;;;;;;5050469;28;20036;-75
2021/06/25 06:50:19;;;;;;;35.88;20.48;;;16.20;99.90;;;;;;5052975;28;20029;-74
2021/06/25 06:52:49;;;;;;;34.33;20.00;;;16.30;99.90;;;;;;5037982;28;20033;-75
2021/06/25 06:55:16;;;;;;;37.67;18.45;;;16.40;99.90;;;;;;5045536;28;20099;-75
2021/06/25 06:57:42;;;;;;;34.53;17.80;;;16.50;99.90;;;;;;5046741;28;20025;-73
2021/06/25 07:00:09;;;;;;;33.63;17.13;;;16.70;99.90;;;;;;5048909;28;20300;-76
2021/06/25 07:02:42;;;;;;;32.03;17.45;;;16.80;99.90;;;;;;5039737;28;20032;-73
2021/06/25 07:05:10;;;;;;;32.33;17.10;;;16.80;99.90;;;;;;5042833;28;20473;-74
2021/06/25 07:07:36;;;;;;;32.00;16.88;;;16.90;99.90;;;;;;5041360;28;20056;-75
2021/06/25 07:10:07;;;;;;;35.22;18.08;;;17.20;99.90;;;;;;5045864;28;20082;-75
2021/06/25 07:12:32;;;;;;;35.75;16.67;;;17.40;99.90;;;;;;5045152;28;20044;-75
2021/06/25 07:14:58;;;;;;;27.70;16.88;;;17.40;99.90;;;;;;5044358;28;20079;-76
2021/06/25 07:17:26;;;;;;;31.95;17.83;;;17.40;99.90;;;;;;5043142;28;20025;-76
2021/06/25 07:19:51;;;;;;;30.10;17.38;;;17.50;99.90;;;;;;5053520;28;20036;-76
2021/06/25 07:22:19;;;;;;;31.38;18.60;;;17.40;99.90;;;;;;5057610;28;20029;-76
2021/06/25 07:24:45;;;;;;;31.25;16.85;;;17.50;99.90;;;;;;5047532;28;20052;-74
2021/06/25 07:27:10;;;;;;;27.27;16.80;;;17.70;99.90;;;;;;5047035;28;20029;-75
2021/06/25 07:29:45;;;;;;;29.23;16.33;;;17.60;99.90;;;;;;5051169;28;20025;-74
2021/06/25 07:32:14;;;;;;;30.38;16.55;;;17.50;99.90;;;;;;5053969;28;20039;-74
2021/06/25 07:34:41;;;;;;;33.45;17.00;;;17.20;99.90;;;;;;5060476;28;20025;-74
2021/06/25 07:37:08;;;;;;;29.67;17.50;;;17.20;99.90;;;;;;5070817;28;20052;-75
2021/06/25 07:39:34;;;;;;;31.73;16.98;;;17.30;99.90;;;;;;5064481;28;20031;-74
2021/06/25 07:41:59;;;;;;;32.95;18.33;;;17.50;99.90;;;;;;5065662;28;20439;-74
2021/06/25 07:44:31;;;;;;;30.30;17.67;;;17.60;99.90;;;;;;5058121;28;20025;-73
2021/06/25 07:46:56;;;;;;;28.77;16.93;;;17.50;99.90;;;;;;5058835;28;20029;-75
2021/06/25 07:49:24;;;;;;;31.35;17.50;;;17.60;99.90;;;;;;5073689;28;20185;-76
2021/06/25 07:51:50;;;;;;;30.23;16.67;;;17.70;99.90;;;;;;5060370;28;20025;-76
2021/06/25 07:54:16;;;;;;;30.02;16.80;;;17.70;99.90;;;;;;5062749;28;20020;-75
2021/06/25 07:56:42;;;;;;;31.58;16.40;;;17.60;99.90;;;;;;5053623;28;20108;-74
2021/06/25 07:59:07;;;;;;;36.60;16.83;;;17.60;99.90;;;;;;5050880;28;20033;-75
2021/06/25 08:01:33;;;;;;;26.65;15.13;;;17.70;99.90;;;;;;5039069;28;20762;-75
2021/06/25 08:03:58;;;;;;;28.00;16.65;;;17.40;99.90;;;;;;5041591;28;20056;-75
2021/06/25 08:06:24;;;;;;;30.77;16.05;;;17.40;99.90;;;;;;5047239;28;20025;-73
2021/06/25 08:08:51;;;;;;;30.52;15.23;;;17.50;99.90;;;;;;5046892;28;20108;-76
2021/06/25 08:11:17;;;;;;;31.88;15.48;;;17.60;99.90;;;;;;5044203;28;20047;-75
2021/06/25 08:13:43;;;;;;;31.38;16.25;;;17.90;99.90;;;;;;5037040;28;20037;-76
2021/06/25 08:16:08;;;;;;;31.02;16.00;;;17.90;99.90;;;;;;5044783;28;20025;-76
2021/06/25 08:18:34;;;;;;;23.92;15.05;;;17.80;99.90;;;;;;5043121;28;20396;-74
2021/06/25 08:21:00;;;;;;;36.75;15.93;;;17.70;99.90;;;;;;5041684;28;20524;-75
2021/06/25 08:23:25;;;;;;;24.45;14.23;;;17.70;99.90;;;;;;5045948;28;20020;-74
2021/06/25 08:25:51;;;;;;;29.70;15.45;;;17.80;99.90;;;;;;5043074;28;20033;-76
2021/06/25 08:28:16;;;;;;;32.05;16.55;;;18.00;99.90;;;;;;5046463;28;20014;-74
2021/06/25 08:30:42;;;;;;;28.90;16.80;;;18.10;99.90;;;;;;5044747;28;20048;-73
2021/06/25 08:33:08;;;;;;;25.33;16.20;;;17.80;99.90;;;;;;5046876;28;20041;-74
2021/06/25 08:35:33;;;;;;;32.60;17.63;;;17.80;99.90;;;;;;5044186;28;20014;-74
2021/06/25 08:37:59;;;;;;;27.52;15.95;;;17.80;99.90;;;;;;5045136;28;20036;-74
2021/06/25 08:40:25;;;;;;;22.92;15.05;;;17.80;99.90;;;;;;5041411;28;20029;-76
2021/06/25 08:42:51;;;;;;;27.20;16.00;;;18.10;99.90;;;;;;5035401;28;20078;-76
2021/06/25 08:45:17;;;;;;;23.75;15.48;;;18.20;99.90;;;;;;5041552;28;20029;-76
2021/06/25 08:47:47;;;;;;;27.05;15.50;;;18.30;99.90;;;;;;5052393;28;20124;-75
2021/06/25 08:50:16;;;;;;;27.83;15.90;;;18.40;99.90;;;;;;5045055;28;20025;-75
2021/06/25 08:52:43;;;;;;;25.25;16.02;;;18.40;99.90;;;;;;5049054;28;20059;-76
2021/06/25 08:55:10;;;;;;;30.70;16.58;;;18.40;99.90;;;;;;5043275;28;20489;-75
2021/06/25 08:57:35;;;;;;;31.25;16.27;;;18.40;99.90;;;;;;5050071;28;20076;-76
2021/06/25 09:00:10;;;;;;;28.48;17.75;;;18.40;99.90;;;;;;5042560;28;20013;-74
2021/06/25 09:02:37;;;;;;;34.15;20.00;;;18.30;99.90;;;;;;5042615;28;20051;-75
2021/06/25 09:05:05;;;;;;;35.00;22.70;;;18.10;99.90;;;;;;5039126;28;20059;-76
2021/06/25 09:07:44;;;;;;;40.13;25.55;;;18.30;99.90;;;;;;5053748;28;20424;-76
2021/06/25 09:10:13;;;;;;;35.85;25.13;;;18.50;99.90;;;;;;5047906;28;20029;-75
2021/06/25 09:12:39;;;;;;;42.45;27.23;;;18.30;99.90;;;;;;5043355;28;20603;-75
2021/06/25 09:15:11;;;;;;;42.10;25.25;;;18.20;99.90;;;;;;5052375;28;20025;-76
2021/06/25 09:17:55;;;;;;;36.72;26.80;;;18.30;99.90;;;;;;5048238;28;20221;-76
2021/06/25 09:20:40;;;;;;;40.75;25.65;;;18.40;99.90;;;;;;5046689;28;20096;-76
2021/06/25 09:23:14;;;;;;;39.95;22.75;;;18.40;99.90;;;;;;5044633;28;20033;-75
2021/06/25 09:25:53;;;;;;;37.25;23.02;;;18.40;99.90;;;;;;5051612;28;20048;-75
2021/06/25 09:28:28;;;;;;;37.15;20.90;;;18.30;99.90;;;;;;5049767;28;20485;-76
2021/06/25 09:30:54;;;;;;;40.33;19.40;;;18.20;99.90;;;;;;5068144;28;20029;-75
2021/06/25 09:33:21;;;;;;;31.33;19.15;;;18.30;99.90;;;;;;5047406;28;20028;-74
2021/06/25 09:35:55;;;;;;;33.80;18.10;;;18.30;99.90;;;;;;5054009;28;20048;-72
2021/06/25 09:38:37;;;;;;;31.25;18.20;;;18.10;99.90;;;;;;5051216;28;20445;-76
2021/06/25 09:41:25;;;;;;;36.10;18.05;;;17.90;99.90;;;;;;5047043;28;20103;-74
2021/06/25 09:44:02;;;;;;;32.83;18.42;;;17.80;99.90;;;;;;5050431;28;25063;-76
2021/06/25 09:46:34;;;;;;;34.88;17.80;;;17.70;99.90;;;;;;5051624;28;25092;-75
2021/06/25 09:49:06;;;;;;;38.85;19.25;;;17.70;99.90;;;;;;5045066;28;25079;-76
2021/06/25 09:51:34;;;;;;;32.60;16.60;;;17.70;99.90;;;;;;5044010;28;25054;-74
2021/06/25 09:54:14;;;;;;;28.50;15.88;;;17.80;99.90;;;;;;5048874;28;25070;-76
2021/06/25 09:57:05;;;;;;;33.40;18.40;;;18.10;99.90;;;;;;5049236;28;25067;-75
2021/06/25 09:59:37;;;;;;;37.30;16.42;;;18.00;99.90;;;;;;5036786;28;25070;-74
2021/06/25 10:02:21;;;;;;;32.67;17.65;;;17.80;99.90;;;;;;5047910;28;25088;-75
2021/06/25 10:04:54;;;;;;;29.88;16.08;;;17.90;99.90;;;;;;5058549;28;25054;-77
2021/06/25 10:07:25;;;;;;;31.40;16.35;;;17.90;99.90;;;;;;5072573;28;25072;-76
2021/06/25 10:09:53;;;;;;;28.98;16.27;;;17.80;99.90;;;;;;5067012;28;25084;-75
2021/06/25 10:12:20;;;;;;;27.77;16.13;;;17.70;99.90;;;;;;5046328;28;25063;-74
2021/06/25 10:14:48;;;;;;;25.10;15.02;;;17.80;99.90;;;;;;5065035;28;25044;-75
2021/06/25 10:17:14;;;;;;;26.55;15.13;;;17.80;99.90;;;;;;5054991;28;25099;-75
2021/06/25 10:19:48;;;;;;;21.13;13.98;;;17.80;99.90;;;;;;5049640;28;25085;-76
2021/06/25 10:22:16;;;;;;;25.13;13.50;;;17.60;99.90;;;;;;5053963;28;25073;-75
2021/06/25 10:24:48;;;;;;;30.98;14.80;;;17.60;99.90;;;;;;5048526;28;25054;-74
2021/06/25 10:27:17;;;;;;;22.20;13.63;;;17.80;99.90;;;;;;5042182;28;25074;-73
2021/06/25 10:29:44;;;;;;;19.85;12.88;;;17.90;99.90;;;;;;5050085;28;25063;-75
2021/06/25 10:32:10;;;;;;;15.93;12.50;;;17.80;99.90;;;;;;5036066;28;25137;-74
2021/06/25 10:34:42;;;;;;;25.40;15.55;;;17.80;99.90;;;;;;5040655;28;25147;-74
2021/06/25 10:37:12;;;;;;;;;;;17.80;99.90;;;;;;5040112;28;25084;-75
2021/06/25 10:39:38;;;;;;;28.38;15.82;;;17.70;99.90;;;;;;5038378;28;24073;-75
2021/06/25 10:42:11;;;;;;;29.10;18.85;;;17.80;99.90;;;;;;5047597;28;25105;-74
2021/06/25 10:44:54;;;;;;;37.60;21.83;;;17.80;99.90;;;;;;5047369;28;25149;-75
2021/06/25 10:47:32;;;;;;;41.78;22.23;;;17.80;99.90;;;;;;5046200;28;25080;-75
2021/06/25 10:50:01;;;;;;;42.33;23.55;;;17.80;99.90;;;;;;5040245;28;25081;-73
2021/06/25 10:52:31;;;;;;;38.35;24.73;;;17.70;99.90;;;;;;5041239;28;25137;-75
2021/06/25 10:54:59;;;;;;;48.78;27.00;;;17.70;99.90;;;;;;5052309;28;25047;-74
2021/06/25 10:57:25;;;;;;;56.47;28.38;;;17.60;99.90;;;;;;5041905;28;25078;-74
2021/06/25 10:59:50;;;;;;;51.63;29.63;;;17.40;99.90;;;;;;5035717;28;25148;-74
2021/06/25 11:02:16;;;;;;;50.88;28.95;;;17.30;99.90;;;;;;5037408;28;25451;-72
2021/06/25 11:04:46;;;;;;;46.55;27.42;;;17.30;99.90;;;;;;5038355;28;25101;-77
2021/06/25 11:07:42;;;;;;;45.33;26.35;;;17.40;99.90;;;;;;5052716;28;25053;-74
2021/06/25 11:10:09;;;;;;;44.50;25.80;;;17.40;99.90;;;;;;5045488;28;25234;-77
2021/06/25 11:12:39;;;;;;;41.17;25.33;;;17.60;99.90;;;;;;5045172;28;25065;-75
2021/06/25 11:15:04;;;;;;;45.65;24.25;;;17.60;99.90;;;;;;5040372;28;25072;-75
2021/06/25 11:17:48;;;;;;;38.92;22.67;;;17.60;99.90;;;;;;5050996;28;25046;-75
2021/06/25 11:20:24;;;;;;;39.40;22.20;;;17.60;99.90;;;;;;5049921;28;25075;-75
2021/06/25 11:22:55;;;;;;;40.65;24.08;;;17.60;99.90;;;;;;5046959;28;20018;-77
2021/06/25 11:25:52;;;;;;;35.97;21.08;;;17.70;99.90;;;;;;5050980;28;25076;-76
2021/06/25 11:28:37;;;;;;;41.00;25.02;;;17.80;99.90;;;;;;5040984;28;25071;-75
2021/06/25 11:31:18;;;;;;;55.90;27.48;;;17.80;99.90;;;;;;5042829;28;25076;-75
2021/06/25 11:33:50;;;;;;;52.55;28.90;;;18.00;99.90;;;;;;5047798;28;25121;-77
2021/06/25 11:36:31;;;;;;;52.85;28.52;;;18.30;99.90;;;;;;5050979;28;25046;-75
2021/06/25 11:39:08;;;;;;;49.97;27.80;;;18.40;99.90;;;;;;5045063;28;25071;-73
2021/06/25 11:41:38;;;;;;;42.50;24.58;;;18.60;99.90;;;;;;5047450;28;25059;-75
2021/06/25 11:44:12;;;;;;;45.80;24.40;;;18.60;99.90;;;;;;5045479;28;20028;-75
2021/06/25 11:46:53;;;;;;;45.17;25.77;;;18.60;99.90;;;;;;5030423;28;25098;-76
2021/06/25 11:49:19;;;;;;;51.28;29.23;;;18.60;99.90;;;;;;5038849;28;25054;-75
2021/06/25 11:51:46;;;;;;;48.47;28.55;;;18.30;99.90;;;;;;5033714;28;25086;-73
2021/06/25 11:54:17;;;;;;;53.47;31.00;;;18.30;99.90;;;;;;5040229;28;25082;-76
2021/06/25 11:56:47;;;;;;;50.88;29.67;;;18.30;99.90;;;;;;5034280;28;25150;-73
2021/06/25 11:59:15;;;;;;;54.30;29.58;;;18.30;99.90;;;;;;5048276;28;20438;-74
2021/06/25 12:02:02;;;;;;;45.83;25.65;;;18.30;99.90;;;;;;5044315;28;20022;-74
2021/06/25 12:04:34;;;;;;;43.65;23.50;;;18.40;99.90;;;;;;5034941;28;20010;-75
2021/06/25 12:07:00;;;;;;;28.92;17.58;;;18.30;99.90;;;;;;5038721;28;20021;-76
2021/06/25 12:09:44;;;;;;;31.63;16.30;;;18.10;99.90;;;;;;5044641;28;20108;-75
2021/06/25 12:12:18;;;;;;;22.73;14.80;;;18.10;99.90;;;;;;5051224;28;20504;-74
2021/06/25 12:15:11;;;;;;;19.45;13.52;;;18.00;99.90;;;;;;5047668;28;20600;-76
2021/06/25 12:17:48;;;;;;;;;;;18.00;99.90;;;;;;5044066;28;20079;-75
2021/06/25 12:20:28;;;;;;;23.15;12.77;;;18.10;99.90;;;;;;5051076;28;19912;-75
2021/06/25 12:23:03;;;;;;;25.40;13.32;;;18.10;99.90;;;;;;5037997;28;20057;-74
2021/06/25 12:25:46;;;;;;;21.60;11.80;;;18.20;99.90;;;;;;5042256;28;20064;-76
2021/06/25 12:28:15;;;;;;;19.88;12.32;;;18.30;99.90;;;;;;5036293;28;20033;-73
2021/06/25 12:30:56;;;;;;;23.80;13.05;;;18.20;99.90;;;;;;5060802;28;20120;-77
2021/06/25 12:33:24;;;;;;;24.02;14.10;;;18.20;99.90;;;;;;5044219;28;20018;-76
2021/06/25 12:35:52;;;;;;;27.30;14.35;;;18.20;99.90;;;;;;5040980;28;20048;-76
2021/06/25 12:38:23;;;;;;;24.60;12.65;;;18.30;99.90;;;;;;5045651;28;20021;-76
2021/06/25 12:40:53;;;;;;;20.95;13.05;;;18.20;99.90;;;;;;5062016;28;20017;-76
2021/06/25 12:43:22;;;;;;;26.05;13.60;;;18.10;99.90;;;;;;5055312;28;20017;-76
2021/06/25 12:45:52;;;;;;;21.20;11.95;;;18.00;99.90;;;;;;5043571;28;20037;-75
2021/06/25 12:48:26;;;;;;;24.98;12.43;;;18.00;99.90;;;;;;5049099;28;20124;-78